Mica, WA

12:54 AM PDT on September 02, 2014 (GMT -0700)
Ponderosa | Change Station
CLOSE
Current Station
Personal Weather Station
Location: Spokane, WA
Elevation: 2142 ft
Nearby Weather Stations

Elev 2142 ft 47.61 °N, 117.26 °W | Updated 1 second ago

Clear
Clear
68.7 °F
Feels Like 68.7 °F
N
0.0
Wind Variable Wind from North
Gusts 0.0 mph

Today
High -- | Low -- °F
--% Chance of Precip.
Yesterday
High -- | Low -- °F
Precip. -- in
6:08 AM 7:26 PM
Waxing Crescent, 49% visible
Pressure 29.90 in
Visibility 10.0 miles
Clouds Overcast 7500 ft
Dew Point 31 °F
Humidity 25%
Rainfall 0.00 in
Snow Depth Not available.
UV 0 out of 12
Pollen 6.50 out of 12
PM2.5 Good
Flu Activity Not available.
METAR KSFF 020653Z 04005KT 10SM OVC075 13/06 A2992 RMK AO2 SLP125 T01330061

More Conditions Fewer Conditions

Pressure 29.90 in
Visibility 10.0 miles
Clouds Overcast 7500 ft
Dew Point 31 °F
Humidity 25%
Rainfall 0.00 in
Snow Depth Not available.
UV 0 out of 12
Pollen 6.50 out of 12
PM2.5 Good
Flu Activity Not available.
METAR KSFF 020653Z 04005KT 10SM OVC075 13/06 A2992 RMK AO2 SLP125 T01330061

More Conditions Fewer Conditions

10-Day Weather Forecast

Almanac

Astronomy

Sep. 02, 2014 Rise Set
Actual Time 6:08 AM PDT 7:26 PM PDT
Civil Twilight 5:37 AM PDT 7:58 PM PDT
Nautical Twilight 4:58 AM PDT 8:36 PM PDT
Astronomical Twilight 4:17 AM PDT 9:17 PM PDT
Moon 2:27 PM PDT 11:55 PM PDT
Length of Visible Light 14h 21m
Length of Day
13h 18m
Tomorrow will be 3m 19s shorter.
Waxing Crescent, 49% of the Moon is Illuminated
Today
Waxing Crescent
Sep 2
First Quarter
Sep 8
Full
Sep 15
Last Quarter
Sep 24
New

Today's Extremes

State Highs State Lows

Community

WunderPhotos

Upload Photos

1,749,589 photos uploaded!

WunderBlogs® & News

Nearby

Air Quality

  Air Quality AQ Index Pollutant
Yesterday Good
OZONE
Yesterday Good
PM10
Current Good
PM2.5
Monday Good
PM10
Tuesday Good
PM2.5

Snow Depth

Station Depth Elevation
Quartz Peak 2 in 4700 ft
Bunchgrass Meadow 0 in 5000 ft
Sourdough Gulch 0 in 4000 ft
Spruce Springs 1 in 5700 ft
Moses Mountain 1 in 5300 ft

Earthquake Activity

City Distance Mag. Time & Date
No recent earthquake activity has been reported nearby.
Minimum magnitude displayed is 2.5.

Coastal Water Temperatures

Place Temperature
No Stations Reporting

Nearby Weather Stations